Time;durP1;ratioP1;P1;durP2;ratioP2;P2;SDS_P1;SDS_P2;PMS_P1;PMS_P2;Temp;Humidity;BMP_temperature;BMP_pressure;BME280_temperature;BME280_humidity;BME280_pressure;Samples;Min_cycle;Max_cycle;Signal;HPM_P1;HPM_P2
2023/03/10 00:00:47;;;;;;;113.90;83.10;;;;;;;5.28;100.00;97311.41;109845;1250;59681;-82
2023/03/10 00:03:22;;;;;;;107.20;82.10;;;;;;;5.26;100.00;97307.17;109698;1250;65026;-81
2023/03/10 00:05:49;;;;;;;109.60;83.00;;;;;;;5.20;100.00;97312.14;109756;1250;59036;-81
2023/03/10 00:08:16;;;;;;;111.40;84.60;;;;;;;5.15;100.00;97315.51;109745;1250;59025;-82
2023/03/10 00:10:42;;;;;;;113.80;83.40;;;;;;;5.06;100.00;97313.30;109714;1250;64443;-82
2023/03/10 00:13:09;;;;;;;108.80;83.40;;;;;;;5.02;100.00;97309.92;109688;1250;59804;-80
2023/03/10 00:15:36;;;;;;;99.90;75.30;;;;;;;5.00;100.00;97305.13;109689;1250;63767;-82
2023/03/10 00:18:02;;;;;;;103.40;76.50;;;;;;;5.02;100.00;97302.88;109490;1254;58976;-81
2023/03/10 00:20:29;;;;;;;93.80;69.70;;;;;;;5.04;100.00;97297.95;109738;1250;58877;-81
2023/03/10 00:22:56;;;;;;;88.20;66.40;;;;;;;5.10;100.00;97296.30;109675;1250;65922;-81
2023/03/10 00:25:22;;;;;;;82.10;60.20;;;;;;;5.18;100.00;97294.19;109693;1250;61035;-82
2023/03/10 00:27:51;;;;;;;69.80;53.00;;;;;;;5.26;100.00;97290.42;109676;1250;64005;-81
2023/03/10 00:30:18;;;;;;;64.50;49.50;;;;;;;5.36;100.00;97284.59;109666;1250;59025;-81
2023/03/10 00:32:44;;;;;;;67.10;48.80;;;;;;;5.44;100.00;97284.48;109696;1250;58777;-82
2023/03/10 00:35:11;;;;;;;71.90;53.90;;;;;;;5.51;100.00;97283.29;109692;1250;66754;-81
2023/03/10 00:37:38;;;;;;;65.30;51.90;;;;;;;5.56;100.00;97278.20;109681;1250;59274;-82
2023/03/10 00:40:09;;;;;;;67.60;55.00;;;;;;;5.60;100.00;97277.17;109693;1250;64775;-83
2023/03/10 00:42:35;;;;;;;68.30;53.70;;;;;;;5.65;100.00;97274.48;109559;1253;58991;-82
2023/03/10 00:45:02;;;;;;;63.10;48.20;;;;;;;5.70;100.00;97277.16;109689;1250;58964;-81
2023/03/10 00:47:29;;;;;;;65.80;50.70;;;;;;;5.74;100.00;97279.52;109666;1250;67168;-81
2023/03/10 00:49:55;;;;;;;59.40;46.60;;;;;;;5.79;100.00;97281.58;109362;1250;61063;-82
2023/03/10 00:52:22;;;;;;;51.10;42.60;;;;;;;5.82;100.00;97279.78;109661;1250;62430;-82
2023/03/10 00:54:50;;;;;;;45.00;38.40;;;;;;;5.84;100.00;97269.20;109686;1250;59015;-82
2023/03/10 00:57:17;;;;;;;48.50;40.30;;;;;;;5.82;100.00;97263.02;109596;1250;59044;-81
2023/03/10 00:59:44;;;;;;;49.10;40.40;;;;;;;5.76;100.00;97257.31;109717;1250;65755;-82
2023/03/10 01:02:10;;;;;;;48.90;39.80;;;;;;;5.70;100.00;97260.23;109655;1250;60852;-81
2023/03/10 01:04:37;;;;;;;49.10;40.40;;;;;;;5.64;100.00;97259.27;109674;1250;64759;-81
2023/03/10 01:07:03;;;;;;;49.30;40.00;;;;;;;5.58;100.00;97256.89;109499;1253;59034;-81
2023/03/10 01:09:30;;;;;;;43.70;36.90;;;;;;;5.53;100.00;97257.27;109704;1250;58948;-81
2023/03/10 01:11:56;;;;;;;48.90;40.70;;;;;;;5.50;100.00;97260.13;109691;1250;66734;-82
2023/03/10 01:14:23;;;;;;;47.90;38.30;;;;;;;5.50;100.00;97260.84;109691;1250;60704;-81
2023/03/10 01:16:50;;;;;;;39.30;33.70;;;;;;;5.51;100.00;97256.16;109561;1250;64169;-81
2023/03/10 01:19:17;;;;;;;33.10;27.00;;;;;;;5.54;100.00;97255.95;109689;1250;58974;-81
2023/03/10 01:21:43;;;;;;;24.20;21.20;;;;;;;5.61;100.00;97251.73;109672;1250;58862;-81
2023/03/10 01:24:14;;;;;;;21.60;16.50;;;;;;;5.72;100.00;97251.59;109716;1250;65671;-81
2023/03/10 01:26:40;;;;;;;16.20;13.10;;;;;;;5.86;100.00;97247.53;109674;1250;60780;-82
2023/03/10 01:29:07;;;;;;;14.90;10.60;;;;;;;6.01;100.00;97239.95;109702;1250;64729;-81
2023/03/10 01:31:34;;;;;;;14.20;9.80;;;;;;;6.12;100.00;97231.86;109666;1250;58948;-81
2023/03/10 01:34:00;;;;;;;12.90;9.80;;;;;;;6.21;100.00;97225.54;109700;1250;59022;-81
2023/03/10 01:36:27;;;;;;;11.70;8.90;;;;;;;6.29;100.00;97223.89;109696;1250;65696;-81
2023/03/10 01:38:56;;;;;;;10.60;7.60;;;;;;;6.36;100.00;97226.13;109319;1250;60079;-80
2023/03/10 01:41:23;;;;;;;13.60;7.80;;;;;;;6.44;100.00;97230.11;109698;1250;63754;-81
2023/03/10 01:43:53;;;;;;;12.60;8.70;;;;;;;6.48;100.00;97223.77;109611;1251;58982;-80
2023/03/10 01:46:57;;;;;;;13.70;10.00;;;;;;;6.49;100.00;97221.90;109642;1250;59018;-80
2023/03/10 01:49:40;;;;;;;16.40;11.40;;;;;;;6.49;100.00;97223.50;108990;1259;65895;-82
2023/03/10 01:52:28;;;;;;;13.80;9.40;;;;;;;6.49;100.00;97222.80;109015;1260;59090;-81
2023/03/10 01:55:08;;;;;;;16.30;8.90;;;;;;;6.48;100.00;97218.33;108998;1259;63692;-81
2023/03/10 01:57:55;;;;;;;14.40;9.20;;;;;;;6.45;100.00;97219.98;109009;1259;59015;-82
2023/03/10 02:00:25;;;;;;;12.60;7.90;;;;;;;6.40;100.00;97215.38;109104;1259;59029;-80
2023/03/10 02:03:02;;;;;;;16.20;7.90;;;;;;;6.38;100.00;97215.88;109106;1259;67056;-80
2023/03/10 02:05:30;;;;;;;14.00;9.10;;;;;;;6.37;100.00;97219.52;109071;1259;61103;-81
2023/03/10 02:07:58;;;;;;;19.80;15.90;;;;;;;6.34;100.00;97218.15;108980;1259;65282;-81
2023/03/10 02:10:26;;;;;;;19.50;16.50;;;;;;;6.32;100.00;97218.81;109003;1259;59003;-82
2023/03/10 02:12:52;;;;;;;13.10;9.30;;;;;;;6.29;100.00;97218.20;108970;1260;59006;-81
2023/03/10 02:15:19;;;;;;;11.60;7.20;;;;;;;6.25;100.00;97214.43;108929;1259;66049;-81
2023/03/10 02:17:49;;;;;;;14.20;7.30;;;;;;;6.22;100.00;97212.05;109002;1259;60736;-81
2023/03/10 02:20:30;;;;;;;10.30;7.30;;;;;;;6.17;100.00;97210.36;108983;1259;63716;-82
2023/03/10 02:22:57;;;;;;;10.60;7.50;;;;;;;6.10;100.00;97209.61;108991;1259;58960;-81
2023/03/10 02:25:38;;;;;;;9.70;6.90;;;;;;;6.04;100.00;97204.27;109091;1259;58925;-81
2023/03/10 02:28:06;;;;;;;16.50;9.90;;;;;;;5.99;100.00;97202.74;109676;1250;65735;-81
2023/03/10 02:30:41;;;;;;;14.30;11.90;;;;;;;5.92;100.00;97198.27;109362;1258;60182;-81
2023/03/10 02:33:19;;;;;;;14.40;10.90;;;;;;;5.87;100.00;97194.94;109639;1250;65033;-81
2023/03/10 02:35:45;;;;;;;13.80;9.80;;;;;;;5.84;100.00;97191.47;109669;1250;58901;-81
2023/03/10 02:38:12;;;;;;;13.50;9.80;;;;;;;5.83;100.00;97188.09;109693;1250;58891;-80
2023/03/10 02:40:43;;;;;;;11.90;8.70;;;;;;;5.84;100.00;97181.98;109703;1250;65832;-81
2023/03/10 02:43:25;;;;;;;10.40;5.50;;;;;;;5.88;100.00;97176.92;109659;1250;60265;-80
2023/03/10 02:45:57;;;;;;;7.40;5.70;;;;;;;5.94;100.00;97169.80;109644;1254;63691;-81
2023/03/10 02:48:31;;;;;;;8.80;5.80;;;;;;;5.98;100.00;97164.95;109642;1254;58976;-81
2023/03/10 02:51:05;;;;;;;7.80;5.00;;;;;;;5.96;100.00;97162.22;109552;1250;59162;-82
2023/03/10 02:53:31;;;;;;;5.80;4.20;;;;;;;5.94;100.00;97158.88;109195;1261;67152;-81
2023/03/10 02:55:58;;;;;;;5.40;3.60;;;;;;;5.92;100.00;97155.27;109737;1250;59825;-82
2023/03/10 02:58:28;;;;;;;6.00;3.50;;;;;;;5.91;100.00;97158.55;109626;1250;73550;-82
2023/03/10 03:00:56;;;;;;;5.10;3.10;;;;;;;5.87;100.00;97155.27;109566;1250;59311;-81
2023/03/10 03:03:23;;;;;;;5.60;3.40;;;;;;;5.83;100.00;97149.08;109717;1250;59099;-82
2023/03/10 03:05:50;;;;;;;5.80;3.40;;;;;;;5.80;100.00;97149.52;109673;1250;67015;-81
2023/03/10 03:08:18;;;;;;;5.00;3.40;;;;;;;5.74;100.00;97148.90;109646;1251;61064;-82
2023/03/10 03:10:45;;;;;;;4.40;3.40;;;;;;;5.68;100.00;97144.80;109658;1251;64960;-81
2023/03/10 03:13:12;;;;;;;6.60;4.20;;;;;;;5.62;100.00;97146.85;109367;1252;58981;-81
2023/03/10 03:15:39;;;;;;;6.10;3.00;;;;;;;5.57;100.00;97147.24;109708;1254;58914;-80
2023/03/10 03:18:06;;;;;;;4.30;3.30;;;;;;;5.52;100.00;97148.11;109661;1251;66751;-81
2023/03/10 03:20:34;;;;;;;5.00;3.40;;;;;;;5.47;100.00;97144.95;109654;1252;60486;-81
2023/03/10 03:23:01;;;;;;;5.00;3.80;;;;;;;5.43;100.00;97144.73;109693;1250;65006;-82
2023/03/10 03:25:29;;;;;;;5.70;4.00;;;;;;;5.40;100.00;97140.90;109664;1251;58991;-82
2023/03/10 03:27:56;;;;;;;8.00;4.60;;;;;;;5.37;100.00;97137.96;109641;1251;59141;-81
2023/03/10 03:30:26;;;;;;;8.80;6.70;;;;;;;5.35;100.00;97136.02;109694;1250;66029;-81
2023/03/10 03:32:53;;;;;;;10.90;8.60;;;;;;;5.36;100.00;97134.58;109630;1250;59756;-81
2023/03/10 03:35:24;;;;;;;12.90;10.90;;;;;;;5.36;100.00;97132.61;109649;1250;65108;-81
2023/03/10 03:37:52;;;;;;;14.40;12.60;;;;;;;5.36;100.00;97129.77;109610;1251;59066;-82
2023/03/10 03:40:20;;;;;;;13.90;12.50;;;;;;;5.37;100.00;97126.17;109676;1251;59013;-80
2023/03/10 03:42:49;;;;;;;14.60;13.10;;;;;;;5.37;100.00;97118.11;109629;1254;67240;-81
2023/03/10 03:45:18;;;;;;;13.00;11.90;;;;;;;5.37;100.00;97114.04;109660;1251;61010;-81
2023/03/10 03:47:45;;;;;;;13.10;12.00;;;;;;;5.36;100.00;97109.86;109674;1251;64957;-81
2023/03/10 03:50:13;;;;;;;14.50;13.10;;;;;;;5.35;100.00;97108.55;109314;1251;59053;-81
2023/03/10 03:52:41;;;;;;;14.70;13.40;;;;;;;5.33;100.00;97101.86;109681;1250;58951;-82
2023/03/10 03:55:09;;;;;;;15.00;13.60;;;;;;;5.30;100.00;97096.27;109673;1251;66740;-82
2023/03/10 03:57:36;;;;;;;11.80;10.70;;;;;;;5.27;100.00;97093.29;109649;1251;59840;-80
2023/03/10 04:00:07;;;;;;;9.40;8.30;;;;;;;5.24;100.00;97091.23;109691;1251;63684;-82
2023/03/10 04:02:34;;;;;;;8.90;8.00;;;;;;;5.21;100.00;97088.69;109669;1250;58979;-81
2023/03/10 04:05:01;;;;;;;11.10;7.40;;;;;;;5.18;100.00;97087.69;109458;1255;59011;-81
2023/03/10 04:07:28;;;;;;;11.00;9.80;;;;;;;5.15;100.00;97087.23;109647;1251;65744;-81
2023/03/10 04:09:54;;;;;;;11.90;10.10;;;;;;;5.13;100.00;97081.75;109662;1251;59732;-81
2023/03/10 04:12:21;;;;;;;17.30;12.90;;;;;;;5.10;100.00;97078.77;109628;1251;64734;-81
2023/03/10 04:14:47;;;;;;;17.50;14.80;;;;;;;5.08;100.00;97076.45;109511;1251;59047;-82
2023/03/10 04:17:15;;;;;;;16.30;13.70;;;;;;;5.06;100.00;97070.09;109743;1251;58840;-81
2023/03/10 04:19:42;;;;;;;13.10;10.90;;;;;;;5.03;100.00;97062.23;109699;1250;65739;-82
2023/03/10 04:22:08;;;;;;;11.80;9.20;;;;;;;5.02;100.00;97056.34;109888;1251;59831;-81
2023/03/10 04:24:38;;;;;;;7.90;6.30;;;;;;;4.99;100.00;97051.27;109860;1251;64025;-80
2023/03/10 04:27:08;;;;;;;9.00;6.90;;;;;;;4.94;100.00;97043.54;109668;1250;59014;-81
2023/03/10 04:29:35;;;;;;;7.80;7.00;;;;;;;4.88;100.00;97039.94;109439;1251;59288;-81
2023/03/10 04:32:03;;;;;;;11.80;8.90;;;;;;;4.85;100.00;97038.97;109536;1250;65769;-82
2023/03/10 04:34:30;;;;;;;14.90;13.20;;;;;;;4.81;100.00;97035.85;109709;1251;60757;-81
2023/03/10 04:36:57;;;;;;;16.90;11.80;;;;;;;4.81;100.00;97033.63;109615;1251;64932;-82
2023/03/10 04:39:23;;;;;;;13.10;11.10;;;;;;;4.80;100.00;97031.38;109619;1250;59010;-81
2023/03/10 04:41:50;;;;;;;12.60;10.30;;;;;;;4.78;100.00;97028.92;109716;1251;58851;-81
2023/03/10 04:44:17;;;;;;;12.30;10.20;;;;;;;4.71;100.00;97030.35;109792;1251;65806;-81
2023/03/10 04:46:43;;;;;;;12.20;10.00;;;;;;;4.62;100.00;97027.98;109687;1251;59895;-80
2023/03/10 04:49:10;;;;;;;13.70;10.50;;;;;;;4.54;100.00;97024.36;109667;1250;63656;-82
2023/03/10 04:51:37;;;;;;;15.30;11.00;;;;;;;4.48;100.00;97022.91;109638;1254;59231;-81
2023/03/10 04:54:03;;;;;;;14.30;10.60;;;;;;;4.43;100.00;97020.98;109508;1250;59114;-79
2023/03/10 04:56:30;;;;;;;14.20;10.20;;;;;;;4.37;100.00;97024.56;109716;1251;65661;-81
2023/03/10 04:58:57;;;;;;;12.20;10.00;;;;;;;4.34;100.00;97020.92;109432;1251;60864;-81
2023/03/10 05:01:24;;;;;;;15.70;11.30;;;;;;;4.32;100.00;97019.27;109652;1251;64798;-81
2023/03/10 05:03:51;;;;;;;17.40;12.70;;;;;;;4.31;100.00;97015.86;109631;1251;58978;-81
2023/03/10 05:06:20;;;;;;;17.70;12.20;;;;;;;4.28;100.00;97010.64;109687;1250;59004;-81
2023/03/10 05:08:47;;;;;;;17.20;11.70;;;;;;;4.27;100.00;97006.71;109639;1251;65949;-81
2023/03/10 05:11:13;;;;;;;15.90;11.80;;;;;;;4.27;100.00;97006.14;109677;1251;59062;-81
2023/03/10 05:13:40;;;;;;;17.50;12.80;;;;;;;4.26;100.00;97004.30;109668;1251;63754;-81
2023/03/10 05:16:15;;;;;;;16.10;12.20;;;;;;;4.25;100.00;97006.67;109598;1251;58944;-81
2023/03/10 05:18:42;;;;;;;15.70;13.00;;;;;;;4.23;100.00;97002.25;109650;1251;60475;-82
2023/03/10 05:21:09;;;;;;;13.50;11.40;;;;;;;4.24;100.00;97000.20;109345;1250;66887;-81
2023/03/10 05:23:36;;;;;;;13.60;10.90;;;;;;;4.25;100.00;96997.36;109708;1250;58998;-82
2023/03/10 05:26:08;;;;;;;14.40;10.70;;;;;;;4.24;100.00;96991.98;109665;1251;64726;-81
2023/03/10 05:28:35;;;;;;;16.90;11.70;;;;;;;4.26;100.00;96986.52;109415;1251;59031;-81
2023/03/10 05:31:07;;;;;;;15.60;11.80;;;;;;;4.30;100.00;96981.44;109367;1250;59176;-80
2023/03/10 05:33:35;;;;;;;16.20;14.10;;;;;;;4.43;100.00;96981.41;109624;1251;66767;-81
2023/03/10 05:36:06;;;;;;;16.90;13.90;;;;;;;4.59;100.00;96973.14;109696;1251;60680;-81
2023/03/10 05:38:34;;;;;;;14.40;12.40;;;;;;;4.75;100.00;96967.02;109553;1251;63440;-81
2023/03/10 05:41:04;;;;;;;16.60;13.90;;;;;;;4.90;100.00;96960.60;109606;1251;59019;-81
2023/03/10 05:43:31;;;;;;;;;;;;;;;5.01;100.00;96955.91;109650;1250;58981;-81
2023/03/10 05:45:58;;;;;;;18.50;13.30;;;;;;;5.08;100.00;96954.66;109606;1251;65940;-80
2023/03/10 05:48:25;;;;;;;16.50;11.60;;;;;;;5.16;100.00;96946.48;109679;1251;59733;-81
2023/03/10 05:51:11;;;;;;;14.60;12.90;;;;;;;5.25;100.00;96939.59;109636;1251;64687;-81
2023/03/10 05:53:39;;;;;;;18.60;14.30;;;;;;;5.33;100.00;96935.97;109611;1251;58935;-81
2023/03/10 05:56:17;;;;;;;13.30;10.70;;;;;;;5.38;100.00;96933.51;109634;1251;59128;-81
2023/03/10 05:58:45;;;;;;;14.30;11.60;;;;;;;5.40;100.00;96934.05;109555;1250;65967;-81
2023/03/10 06:01:13;;;;;;;17.40;14.80;;;;;;;5.38;100.00;96936.29;109446;1251;61412;-81
2023/03/10 06:03:40;;;;;;;18.50;12.10;;;;;;;5.38;100.00;96935.03;109582;1251;65023;-81
2023/03/10 06:06:07;;;;;;;16.30;13.50;;;;;;;5.45;100.00;96932.39;109580;1251;59003;-81
2023/03/10 06:08:34;;;;;;;16.20;13.20;;;;;;;5.55;100.00;96928.61;109334;1251;59021;-81
2023/03/10 06:11:01;;;;;;;16.70;14.60;;;;;;;5.65;100.00;96922.35;109437;1251;67152;-81
2023/03/10 06:13:28;;;;;;;19.60;17.60;;;;;;;5.78;100.00;96913.57;109439;1251;60569;-81
2023/03/10 06:15:56;;;;;;;18.20;16.40;;;;;;;5.91;100.00;96913.60;109640;1251;65018;-81
2023/03/10 06:18:24;;;;;;;24.20;18.20;;;;;;;6.03;100.00;96918.29;109656;1250;58910;-81
2023/03/10 06:20:52;;;;;;;23.80;17.10;;;;;;;6.15;100.00;96916.89;109624;1251;58868;-82
2023/03/10 06:23:20;;;;;;;20.10;17.20;;;;;;;6.28;100.00;96915.34;109590;1251;66756;-81
2023/03/10 06:26:05;;;;;;;17.00;15.10;;;;;;;6.40;100.00;96909.35;109344;1250;59845;-83
2023/03/10 06:28:35;;;;;;;20.20;15.90;;;;;;;6.58;100.00;96908.59;109624;1250;64131;-81
2023/03/10 06:31:08;;;;;;;18.00;15.70;;;;;;;6.72;100.00;96906.16;109529;1250;59102;-81
2023/03/10 06:33:34;;;;;;;19.80;16.60;;;;;;;6.86;100.00;96908.31;109645;1250;58992;-82
2023/03/10 06:36:01;;;;;;;18.10;15.90;;;;;;;7.03;100.00;96898.70;109619;1251;66286;-81
2023/03/10 06:38:29;;;;;;;16.80;11.30;;;;;;;7.21;100.00;96896.65;109649;1250;59896;-82
2023/03/10 06:40:57;;;;;;;12.60;9.30;;;;;;;7.40;100.00;96896.97;109583;1251;64983;-82
2023/03/10 06:43:24;;;;;;;13.10;9.20;;;;;;;7.59;100.00;96892.25;109637;1250;59018;-81
2023/03/10 06:45:50;;;;;;;17.70;11.50;;;;;;;7.78;100.00;96888.05;109625;1251;59002;-82
2023/03/10 06:48:17;;;;;;;14.90;11.30;;;;;;;7.97;100.00;96883.06;109378;1250;66270;-81
2023/03/10 06:50:49;;;;;;;15.60;9.70;;;;;;;8.14;100.00;96882.36;109615;1251;58941;-81
2023/03/10 06:53:19;;;;;;;15.30;8.90;;;;;;;8.32;100.00;96877.23;109569;1250;64231;-81
2023/03/10 06:56:04;;;;;;;17.40;8.90;;;;;;;8.49;100.00;96871.23;109587;1250;59016;-81
2023/03/10 06:58:33;;;;;;;17.20;9.40;;;;;;;8.70;100.00;96869.60;109615;1250;58971;-81
2023/03/10 07:00:59;;;;;;;14.60;7.90;;;;;;;8.93;100.00;96865.87;109633;1250;66839;-81
2023/03/10 07:03:27;;;;;;;10.20;6.60;;;;;;;9.15;100.00;96857.46;109657;1250;60229;-82
2023/03/10 07:05:55;;;;;;;11.20;5.80;;;;;;;9.36;100.00;96860.59;109579;1250;65044;-81
2023/03/10 07:08:22;;;;;;;10.50;5.40;;;;;;;9.58;100.00;96856.61;109584;1250;59003;-81
2023/03/10 07:10:49;;;;;;;9.40;4.00;;;;;;;9.84;100.00;96850.55;109645;1250;59062;-81
2023/03/10 07:13:16;;;;;;;10.00;4.00;;;;;;;10.13;100.00;96856.38;109587;1250;66730;-81
2023/03/10 07:15:44;;;;;;;6.50;3.60;;;;;;;10.43;100.00;96844.93;109629;1250;60495;-81
2023/03/10 07:18:12;;;;;;;5.70;3.10;;;;;;;10.74;100.00;96844.98;109603;1250;64821;-81
2023/03/10 07:20:40;;;;;;;6.80;3.50;;;;;;;11.04;100.00;96839.41;109604;1250;59068;-81
2023/03/10 07:23:07;;;;;;;5.10;3.10;;;;;;;11.33;100.00;96838.89;109620;1250;59498;-81
2023/03/10 07:25:36;;;;;;;6.00;2.60;;;;;;;11.58;100.00;96836.11;109654;1250;65640;-81
2023/03/10 07:28:04;;;;;;;4.70;2.30;;;;;;;11.80;100.00;96839.62;109595;1250;61119;-81
2023/03/10 07:30:32;;;;;;;5.10;2.50;;;;;;;12.01;100.00;96835.67;109567;1250;64054;-82
2023/03/10 07:32:59;;;;;;;3.40;2.00;;;;;;;12.18;100.00;96828.15;109592;1250;59571;-81
2023/03/10 07:35:26;;;;;;;4.10;2.30;;;;;;;12.32;100.00;96827.29;109619;1250;59012;-82
2023/03/10 07:37:53;;;;;;;4.50;2.50;;;;;;;12.42;100.00;96817.10;109649;1251;67294;-81
2023/03/10 07:40:23;;;;;;;4.30;1.90;;;;;;;12.47;100.00;96813.89;109649;1250;59717;-81
2023/03/10 07:42:53;;;;;;;2.00;1.30;;;;;;;12.54;100.00;96814.45;109430;1250;64049;-81
2023/03/10 07:45:21;;;;;;;6.70;2.30;;;;;;;12.66;100.00;96812.93;109351;1250;59038;-82
2023/03/10 07:47:49;;;;;;;4.00;1.40;;;;;;;12.80;100.00;96812.60;109632;1250;58917;-81
2023/03/10 07:50:16;;;;;;;4.50;2.10;;;;;;;12.94;100.00;96810.30;109655;1250;66658;-81
2023/03/10 07:52:43;;;;;;;5.40;2.40;;;;;;;13.08;100.00;96808.55;109478;1250;61136;-81
2023/03/10 07:55:09;;;;;;;4.60;1.80;;;;;;;13.13;100.00;96804.07;109669;1250;63839;-81
2023/03/10 07:57:36;;;;;;;4.60;1.70;;;;;;;13.16;100.00;96808.23;109617;1250;59199;-82
2023/03/10 08:00:04;;;;;;;2.70;1.40;;;;;;;13.22;100.00;96813.29;109598;1250;59037;-81
2023/03/10 08:02:31;;;;;;;4.70;1.40;;;;;;;13.28;100.00;96806.73;109638;1250;66898;-82
2023/03/10 08:04:58;;;;;;;2.60;1.40;;;;;;;13.39;100.00;96805.14;109681;1250;61082;-82
2023/03/10 08:07:26;;;;;;;1.50;1.00;;;;;;;13.61;100.00;96803.88;109585;1250;62538;-82
2023/03/10 08:09:53;;;;;;;2.00;1.10;;;;;;;13.84;100.00;96802.44;109562;1250;58957;-82
2023/03/10 08:12:20;;;;;;;2.40;1.10;;;;;;;14.12;100.00;96795.89;109628;1250;58937;-81
2023/03/10 08:14:47;;;;;;;4.10;1.30;;;;;;;14.42;100.00;96796.83;109654;1250;65887;-81
2023/03/10 08:17:14;;;;;;;3.00;1.60;;;;;;;14.64;100.00;96796.55;109624;1250;60701;-82
2023/03/10 08:19:40;;;;;;;3.20;1.30;;;;;;;14.76;100.00;96792.09;109611;1250;64997;-81
2023/03/10 08:22:09;;;;;;;2.80;1.00;;;;;;;14.88;100.00;96789.51;109601;1251;58972;-81
2023/03/10 08:24:39;;;;;;;2.80;1.10;;;;;;;15.00;100.00;96781.56;109669;1250;58964;-81
2023/03/10 08:27:06;;;;;;;2.90;1.00;;;;;;;15.08;100.00;96779.33;109636;1250;65659;-81
2023/03/10 08:29:33;;;;;;;3.10;1.60;;;;;;;15.16;100.00;96778.52;109575;1250;61258;-82
2023/03/10 08:31:59;;;;;;;3.60;1.30;;;;;;;15.25;100.00;96773.35;109613;1250;65256;-82
2023/03/10 08:34:31;;;;;;;1.70;1.10;;;;;;;15.32;100.00;96776.15;109621;1251;59463;-82
2023/03/10 08:36:59;;;;;;;2.50;1.30;;;;;;;15.43;100.00;96770.70;109560;1250;59020;-82
2023/03/10 08:39:27;;;;;;;1.80;1.20;;;;;;;15.54;100.00;96763.65;109601;1250;67302;-82
2023/03/10 08:41:54;;;;;;;2.60;1.20;;;;;;;15.65;100.00;96761.23;109773;1250;61201;-82
2023/03/10 08:44:21;;;;;;;1.80;1.10;;;;;;;15.81;100.00;96765.34;109899;1250;64978;-79
2023/03/10 08:46:48;;;;;;;1.80;1.20;;;;;;;16.01;100.00;96759.51;109836;1250;59002;-83
2023/03/10 08:49:17;;;;;;;4.30;1.50;;;;;;;16.21;100.00;96760.98;109661;1250;58946;-82
2023/03/10 08:51:45;;;;;;;3.20;1.20;;;;;;;16.47;100.00;96756.98;109685;1250;66807;-82
2023/03/10 08:54:14;;;;;;;3.00;1.50;;;;;;;16.71;100.00;96759.31;109730;1250;60753;-81
2023/03/10 08:56:41;;;;;;;2.70;1.40;;;;;;;16.91;100.00;96759.60;109591;1250;63718;-81
2023/03/10 08:59:08;;;;;;;7.40;1.70;;;;;;;17.01;100.00;96764.08;109589;1250;59170;-82
2023/03/10 09:01:35;;;;;;;2.40;1.60;;;;;;;17.08;100.00;96755.43;109622;1250;59134;-82
2023/03/10 09:04:04;;;;;;;4.10;2.00;;;;;;;17.09;100.00;96749.11;109650;1250;65598;-81
2023/03/10 09:06:30;;;;;;;3.00;1.30;;;;;;;17.14;100.00;96749.70;109647;1250;59737;-82
2023/03/10 09:08:57;;;;;;;2.30;1.20;;;;;;;17.15;100.00;96752.20;109620;1250;64927;-81
2023/03/10 09:11:33;;;;;;;2.70;1.50;;;;;;;17.09;100.00;96754.86;109645;1252;58964;-81
2023/03/10 09:14:01;;;;;;;4.00;1.60;;;;;;;17.04;100.00;96749.95;109601;1250;59002;-81
2023/03/10 09:16:28;;;;;;;2.10;1.50;;;;;;;17.05;100.00;96751.89;109347;1250;66087;-81
2023/03/10 09:18:56;;;;;;;4.10;1.50;;;;;;;17.16;100.00;96748.34;109630;1250;61182;-81
2023/03/10 09:21:24;;;;;;;3.00;1.50;;;;;;;17.27;100.00;96749.36;109673;1250;64160;-82
2023/03/10 09:23:51;;;;;;;3.90;1.50;;;;;;;17.40;100.00;96747.42;109612;1250;58974;-81
2023/03/10 09:26:19;;;;;;;3.60;1.80;;;;;;;17.57;100.00;96744.00;109628;1250;59678;-80
2023/03/10 09:28:48;;;;;;;2.10;1.40;;;;;;;17.73;100.00;96743.18;109475;1250;67269;-81
2023/03/10 09:31:20;;;;;;;2.80;1.40;;;;;;;17.87;100.00;96740.55;109642;1250;61154;-81
2023/03/10 09:33:47;;;;;;;1.90;1.10;;;;;;;17.95;100.00;96742.73;109637;1251;64989;-81
2023/03/10 09:36:15;;;;;;;3.60;1.20;;;;;;;17.91;100.00;96739.11;109207;1250;59341;-81
2023/03/10 09:38:43;;;;;;;3.70;1.60;;;;;;;17.84;99.48;96740.48;109657;1250;58931;-81
2023/03/10 09:41:44;;;;;;;3.20;1.10;;;;;;;17.81;89.96;96742.66;109652;1250;66145;-79
2023/03/10 09:44:25;;;;;;;2.30;1.30;;;;;;;17.74;80.93;96740.70;109646;1250;59864;-81
2023/03/10 09:47:22;;;;;;;4.50;1.40;;;;;;;17.66;78.94;96740.65;109661;1250;65075;-81
2023/03/10 09:49:56;;;;;;;4.10;1.40;;;;;;;17.54;78.38;96738.70;109045;1257;58924;-82
2023/03/10 09:52:43;;;;;;;1.70;1.30;;;;;;;17.45;77.55;96734.31;108903;1257;59092;-81
2023/03/10 09:55:35;;;;;;;2.90;1.70;;;;;;;17.30;77.57;96730.44;108865;1262;66195;-81
2023/03/10 09:58:01;;;;;;;2.60;1.40;;;;;;;17.17;76.87;96731.27;109018;1257;61152;-82
2023/03/10 10:00:34;;;;;;;3.10;1.50;;;;;;;17.04;74.91;96736.52;108991;1257;65221;-81
2023/03/10 10:03:24;;;;;;;3.10;1.70;;;;;;;16.96;76.46;96737.56;108999;1257;59010;-80
2023/03/10 10:05:54;;;;;;;3.50;1.50;;;;;;;16.88;76.46;96730.77;109040;1257;59033;-82
2023/03/10 10:08:25;;;;;;;4.50;1.60;;;;;;;16.80;76.28;96729.98;108982;1257;66096;-81
2023/03/10 10:10:58;;;;;;;3.30;1.50;;;;;;;16.70;75.87;96732.37;109052;1257;60883;-79
2023/03/10 10:13:28;;;;;;;5.40;1.60;;;;;;;16.58;76.34;96726.17;109047;1257;65047;-80
2023/03/10 10:16:04;;;;;;;2.80;2.10;;;;;;;16.54;77.46;96726.14;109016;1257;58889;-81
2023/03/10 10:18:45;;;;;;;3.10;2.00;;;;;;;16.54;77.39;96722.86;109012;1257;58988;-82
2023/03/10 10:21:26;;;;;;;4.80;1.60;;;;;;;16.53;76.57;96718.19;108995;1257;65683;-81
2023/03/10 10:23:53;;;;;;;3.80;1.60;;;;;;;16.54;76.84;96714.64;109014;1257;60760;-81
2023/03/10 10:26:23;;;;;;;3.90;1.30;;;;;;;16.57;76.33;96713.16;109214;1250;65110;-82
2023/03/10 10:28:58;;;;;;;7.10;2.00;;;;;;;16.67;76.59;96710.99;109355;1250;58995;-81
2023/03/10 10:31:28;;;;;;;2.30;1.40;;;;;;;16.82;75.19;96708.02;109626;1250;59078;-81
2023/03/10 10:34:06;;;;;;;5.00;1.80;;;;;;;17.02;74.40;96701.13;109642;1250;66771;-81
2023/03/10 10:36:35;;;;;;;4.40;1.60;;;;;;;17.23;73.88;96698.40;109626;1250;59913;-81
2023/03/10 10:39:19;;;;;;;2.60;1.50;;;;;;;17.44;74.67;96700.13;109643;1250;63885;-81
2023/03/10 10:41:45;;;;;;;4.00;1.80;;;;;;;17.58;73.12;96703.16;109629;1250;59248;-82
2023/03/10 10:44:15;;;;;;;2.60;1.70;;;;;;;17.59;71.50;96704.44;109612;1250;58944;-80
2023/03/10 10:46:53;;;;;;;2.30;1.60;;;;;;;17.54;71.38;96705.54;109200;1250;66778;-80
2023/03/10 10:49:30;;;;;;;3.40;2.10;;;;;;;17.54;70.85;96700.87;109652;1250;61257;-81
2023/03/10 10:52:01;;;;;;;5.20;1.80;;;;;;;17.54;70.23;96696.27;109491;1250;136873;-81
2023/03/10 10:54:40;;;;;;;3.50;2.10;;;;;;;17.56;69.94;96696.23;109647;1250;58999;-81
2023/03/10 10:57:18;;;;;;;2.90;1.70;;;;;;;17.63;70.98;96688.70;109572;1250;58994;-81
2023/03/10 10:59:46;;;;;;;3.00;1.80;;;;;;;17.76;70.76;96679.30;109655;1250;67428;-82
2023/03/10 11:02:30;;;;;;;1.80;1.30;;;;;;;17.88;69.84;96676.52;109364;1250;61249;-80
2023/03/10 11:05:12;;;;;;;2.60;1.60;;;;;;;18.01;69.85;96675.73;109594;1250;65265;-81
2023/03/10 11:07:38;;;;;;;3.40;1.90;;;;;;;18.15;68.81;96671.63;109630;1250;58900;-81
2023/03/10 11:10:12;;;;;;;3.70;2.20;;;;;;;18.31;69.06;96671.41;109664;1250;59127;-81
2023/03/10 11:13:21;;;;;;;6.00;1.70;;;;;;;18.50;68.45;96671.69;109652;1250;65972;-82
2023/03/10 11:16:05;;;;;;;3.40;1.80;;;;;;;18.66;64.52;96672.56;109045;1257;60740;-81
2023/03/10 11:18:44;;;;;;;2.30;1.50;;;;;;;18.71;62.48;96669.16;109033;1257;63718;-82
2023/03/10 11:21:22;;;;;;;5.50;2.00;;;;;;;18.71;61.48;96663.75;109001;1257;59120;-82
2023/03/10 11:23:57;;;;;;;3.30;1.60;;;;;;;18.72;60.83;96661.10;109028;1257;59511;-80
2023/03/10 11:26:39;;;;;;;2.90;1.70;;;;;;;18.73;61.98;96661.86;109019;1257;65729;-81
2023/03/10 11:29:29;;;;;;;3.90;1.80;;;;;;;18.73;60.28;96662.12;109038;1257;59727;-82